Colombia, Brazil
Current Conditions -  °F | °C
As of 9:00 PM on Wednesday 17 Dec 2014 (Local Time) from SBSR Reporting Station
Broken Clouds Broken Clouds  
Wind Chill: 84°   Ceiling: 7000
Heat Index: 85°   Visibility: 6mi
Dew Point: 63°   Wind: 7mph
Humidity: 48%   Direction: 240°WSW
Pressure: 29.85"   Gusts: NA
Location:  20.18°S, 48.69°W
Report Text: SBSR 172300Z 24006KT 9999 FEW040TCU BKN070 29/17 Q1011
Loading
Personal Weather Stations






























Interactive Weather Map New forecast layout! Learn more

10-Day Weather Forecast

Advertisements
Track Severe Weather on mobile